Booker, Arkansas
Current Conditions -  °F | °C
As of 11:53 AM on Sunday 25 Jan 2015 (Local Time) from KLIT Reporting Station
Broken Clouds Broken Clouds  
Wind Chill: 61°   Ceiling: 5500
Heat Index: 61°   Visibility: 10mi
Dew Point: 34°   Wind: 21mph
Humidity: 36%   Direction: 290°WNW
Pressure: 29.73"   Gusts: 28mph
Location:  34.757°N, 92.1411°W
Report Text: KLIT 251753Z 29018G24KT 10SM BKN055 16/01 A2973 RMK AO2 PK WND 27026/1737 SLP070 T01610011 10167 20067 58014
Loading
Personal Weather Stations






























Interactive Weather Map New forecast layout! Learn more

10-Day Weather Forecast

Advertisements
Track Severe Weather on mobile